sensor_id;sensor_type;location;lat;lon;timestamp;P1;durP1;ratioP1;P2;durP2;ratioP2
317;SDS011;146;53.448;10.228;2024-03-07T00:00:06;33.60;;;30.07;;
317;SDS011;146;53.448;10.228;2024-03-07T00:02:59;33.73;;;30.10;;
317;SDS011;146;53.448;10.228;2024-03-07T00:05:47;33.37;;;29.70;;
317;SDS011;146;53.448;10.228;2024-03-07T00:08:35;33.30;;;29.23;;
317;SDS011;146;53.448;10.228;2024-03-07T00:11:22;34.10;;;30.00;;
317;SDS011;146;53.448;10.228;2024-03-07T08:46:36;12.63;;;11.57;;
317;SDS011;146;53.448;10.228;2024-03-07T08:49:23;14.17;;;12.90;;
317;SDS011;146;53.448;10.228;2024-03-07T08:52:10;13.37;;;12.17;;
317;SDS011;146;53.448;10.228;2024-03-07T08:54:57;19.27;;;13.90;;
317;SDS011;146;53.448;10.228;2024-03-07T08:57:47;15.97;;;14.43;;
317;SDS011;146;53.448;10.228;2024-03-07T09:00:34;14.27;;;12.90;;
317;SDS011;146;53.448;10.228;2024-03-07T09:03:25;14.40;;;12.87;;
317;SDS011;146;53.448;10.228;2024-03-07T09:06:13;14.17;;;12.87;;
317;SDS011;146;53.448;10.228;2024-03-07T09:09:01;14.63;;;13.20;;
317;SDS011;146;53.448;10.228;2024-03-07T09:11:52;16.00;;;14.40;;
317;SDS011;146;53.448;10.228;2024-03-07T09:14:42;17.63;;;15.80;;
317;SDS011;146;53.448;10.228;2024-03-07T09:17:29;17.23;;;15.43;;
317;SDS011;146;53.448;10.228;2024-03-07T09:20:21;18.80;;;16.83;;
317;SDS011;146;53.448;10.228;2024-03-07T09:23:09;18.27;;;16.43;;
317;SDS011;146;53.448;10.228;2024-03-07T09:25:57;18.00;;;16.30;;
317;SDS011;146;53.448;10.228;2024-03-07T09:28:47;19.20;;;17.27;;
317;SDS011;146;53.448;10.228;2024-03-07T09:31:34;17.63;;;16.17;;
317;SDS011;146;53.448;10.228;2024-03-07T09:34:22;20.50;;;18.27;;
317;SDS011;146;53.448;10.228;2024-03-07T09:37:19;18.23;;;16.40;;
317;SDS011;146;53.448;10.228;2024-03-07T09:40:12;19.63;;;17.70;;
317;SDS011;146;53.448;10.228;2024-03-07T09:42:59;19.73;;;17.87;;
317;SDS011;146;53.448;10.228;2024-03-07T09:45:50;18.30;;;16.50;;
317;SDS011;146;53.448;10.228;2024-03-07T09:48:40;19.67;;;17.77;;
317;SDS011;146;53.448;10.228;2024-03-07T09:51:27;20.93;;;17.80;;
317;SDS011;146;53.448;10.228;2024-03-07T09:54:21;21.00;;;19.10;;
317;SDS011;146;53.448;10.228;2024-03-07T09:57:09;21.20;;;19.03;;
317;SDS011;146;53.448;10.228;2024-03-07T09:59:58;18.80;;;17.10;;
317;SDS011;146;53.448;10.228;2024-03-07T10:02:53;18.87;;;16.97;;
317;SDS011;146;53.448;10.228;2024-03-07T10:05:42;17.90;;;16.30;;
317;SDS011;146;53.448;10.228;2024-03-07T10:08:30;15.87;;;14.47;;
317;SDS011;146;53.448;10.228;2024-03-07T10:11:25;17.07;;;15.50;;
317;SDS011;146;53.448;10.228;2024-03-07T10:14:14;16.57;;;14.93;;
317;SDS011;146;53.448;10.228;2024-03-07T10:17:10;16.33;;;14.77;;
317;SDS011;146;53.448;10.228;2024-03-07T10:20:02;15.63;;;14.10;;
317;SDS011;146;53.448;10.228;2024-03-07T10:22:52;15.63;;;14.07;;
317;SDS011;146;53.448;10.228;2024-03-07T10:25:40;16.67;;;14.97;;
317;SDS011;146;53.448;10.228;2024-03-07T10:28:32;16.47;;;14.87;;
317;SDS011;146;53.448;10.228;2024-03-07T10:31:27;17.17;;;15.47;;
317;SDS011;146;53.448;10.228;2024-03-07T10:34:18;16.27;;;14.67;;
317;SDS011;146;53.448;10.228;2024-03-07T10:37:06;17.20;;;15.40;;
317;SDS011;146;53.448;10.228;2024-03-07T10:39:54;16.83;;;15.10;;
317;SDS011;146;53.448;10.228;2024-03-07T10:43:00;16.43;;;14.93;;
317;SDS011;146;53.448;10.228;2024-03-07T10:45:56;16.80;;;15.10;;
317;SDS011;146;53.448;10.228;2024-03-07T10:48:50;17.80;;;15.93;;
317;SDS011;146;53.448;10.228;2024-03-07T10:51:44;17.23;;;15.43;;
317;SDS011;146;53.448;10.228;2024-03-07T10:54:34;16.93;;;15.20;;
317;SDS011;146;53.448;10.228;2024-03-07T10:57:34;19.67;;;16.20;;
317;SDS011;146;53.448;10.228;2024-03-07T11:00:27;17.13;;;15.33;;
317;SDS011;146;53.448;10.228;2024-03-07T11:03:23;17.13;;;15.43;;
317;SDS011;146;53.448;10.228;2024-03-07T11:06:10;18.60;;;16.50;;
317;SDS011;146;53.448;10.228;2024-03-07T11:09:02;18.13;;;16.40;;
317;SDS011;146;53.448;10.228;2024-03-07T11:11:55;17.90;;;16.20;;
317;SDS011;146;53.448;10.228;2024-03-07T11:14:45;17.93;;;16.13;;
317;SDS011;146;53.448;10.228;2024-03-07T11:17:36;16.87;;;15.17;;
317;SDS011;146;53.448;10.228;2024-03-07T11:20:35;18.80;;;16.87;;
317;SDS011;146;53.448;10.228;2024-03-07T11:23:26;17.77;;;16.07;;
317;SDS011;146;53.448;10.228;2024-03-07T11:26:18;17.37;;;15.67;;
317;SDS011;146;53.448;10.228;2024-03-07T11:32:28;16.13;;;14.60;;
317;SDS011;146;53.448;10.228;2024-03-07T11:35:20;19.03;;;17.07;;
317;SDS011;146;53.448;10.228;2024-03-07T11:38:15;17.00;;;15.33;;
317;SDS011;146;53.448;10.228;2024-03-07T11:41:15;18.07;;;16.27;;
317;SDS011;146;53.448;10.228;2024-03-07T11:44:08;17.30;;;15.70;;
317;SDS011;146;53.448;10.228;2024-03-07T11:46:57;17.93;;;16.10;;
317;SDS011;146;53.448;10.228;2024-03-07T11:49:48;19.23;;;16.73;;
317;SDS011;146;53.448;10.228;2024-03-07T11:52:35;17.90;;;16.20;;
317;SDS011;146;53.448;10.228;2024-03-07T11:55:26;18.30;;;16.50;;
317;SDS011;146;53.448;10.228;2024-03-07T11:58:21;19.93;;;18.00;;
317;SDS011;146;53.448;10.228;2024-03-07T12:01:08;17.93;;;16.23;;
317;SDS011;146;53.448;10.228;2024-03-07T12:03:56;19.57;;;17.63;;
317;SDS011;146;53.448;10.228;2024-03-07T12:06:49;18.97;;;17.10;;
317;SDS011;146;53.448;10.228;2024-03-07T12:09:43;20.87;;;18.70;;
317;SDS011;146;53.448;10.228;2024-03-07T12:12:37;18.77;;;16.77;;
317;SDS011;146;53.448;10.228;2024-03-07T12:15:25;20.63;;;18.53;;
317;SDS011;146;53.448;10.228;2024-03-07T12:18:15;22.30;;;17.70;;
317;SDS011;146;53.448;10.228;2024-03-07T12:21:03;20.10;;;18.00;;
317;SDS011;146;53.448;10.228;2024-03-07T12:23:54;23.47;;;18.90;;
317;SDS011;146;53.448;10.228;2024-03-07T12:26:41;21.27;;;19.17;;
317;SDS011;146;53.448;10.228;2024-03-07T12:29:34;19.83;;;17.73;;
317;SDS011;146;53.448;10.228;2024-03-07T12:32:22;20.43;;;18.23;;
317;SDS011;146;53.448;10.228;2024-03-07T12:35:11;18.93;;;17.03;;
317;SDS011;146;53.448;10.228;2024-03-07T12:38:02;19.00;;;17.10;;
317;SDS011;146;53.448;10.228;2024-03-07T12:41:02;20.20;;;17.80;;
317;SDS011;146;53.448;10.228;2024-03-07T12:43:55;18.00;;;16.20;;
317;SDS011;146;53.448;10.228;2024-03-07T12:46:46;19.83;;;17.83;;
317;SDS011;146;53.448;10.228;2024-03-07T12:49:34;20.37;;;18.27;;
317;SDS011;146;53.448;10.228;2024-03-07T12:52:24;20.10;;;18.00;;
317;SDS011;146;53.448;10.228;2024-03-07T12:55:14;20.20;;;18.27;;
317;SDS011;146;53.448;10.228;2024-03-07T12:58:03;20.60;;;18.50;;
317;SDS011;146;53.448;10.228;2024-03-07T13:00:53;20.30;;;18.20;;
317;SDS011;146;53.448;10.228;2024-03-07T13:03:47;19.43;;;17.47;;
317;SDS011;146;53.448;10.228;2024-03-07T13:06:34;20.20;;;18.10;;
317;SDS011;146;53.448;10.228;2024-03-07T13:09:22;20.40;;;18.40;;
317;SDS011;146;53.448;10.228;2024-03-07T13:12:12;20.50;;;18.50;;
317;SDS011;146;53.448;10.228;2024-03-07T13:15:00;20.87;;;18.63;;
317;SDS011;146;53.448;10.228;2024-03-07T13:17:57;20.07;;;18.07;;
317;SDS011;146;53.448;10.228;2024-03-07T13:20:46;20.23;;;18.13;;
317;SDS011;146;53.448;10.228;2024-03-07T13:23:33;20.10;;;18.10;;
317;SDS011;146;53.448;10.228;2024-03-07T13:26:21;22.17;;;19.60;;
317;SDS011;146;53.448;10.228;2024-03-07T13:29:12;18.37;;;16.60;;
317;SDS011;146;53.448;10.228;2024-03-07T13:32:00;19.57;;;17.63;;
317;SDS011;146;53.448;10.228;2024-03-07T13:34:53;22.10;;;18.70;;
317;SDS011;146;53.448;10.228;2024-03-07T13:37:41;19.47;;;17.57;;
317;SDS011;146;53.448;10.228;2024-03-07T13:40:28;20.20;;;18.20;;
317;SDS011;146;53.448;10.228;2024-03-07T13:43:16;21.27;;;17.33;;
317;SDS011;146;53.448;10.228;2024-03-07T13:46:06;19.00;;;17.13;;
317;SDS011;146;53.448;10.228;2024-03-07T13:48:56;18.80;;;17.10;;
317;SDS011;146;53.448;10.228;2024-03-07T13:51:52;18.50;;;16.90;;
317;SDS011;146;53.448;10.228;2024-03-07T13:54:46;19.80;;;17.90;;
317;SDS011;146;53.448;10.228;2024-03-07T13:57:40;20.57;;;18.57;;
317;SDS011;146;53.448;10.228;2024-03-07T14:00:36;19.13;;;17.33;;
317;SDS011;146;53.448;10.228;2024-03-07T14:06:57;19.03;;;17.30;;
317;SDS011;146;53.448;10.228;2024-03-07T14:10:13;18.97;;;17.17;;
317;SDS011;146;53.448;10.228;2024-03-07T14:13:34;20.27;;;18.03;;
317;SDS011;146;53.448;10.228;2024-03-07T14:23:41;20.30;;;18.30;;
317;SDS011;146;53.448;10.228;2024-03-07T14:26:58;20.83;;;18.90;;
317;SDS011;146;53.448;10.228;2024-03-07T14:30:13;20.07;;;18.10;;
317;SDS011;146;53.448;10.228;2024-03-07T14:33:12;22.73;;;18.57;;
317;SDS011;146;53.448;10.228;2024-03-07T14:36:02;21.10;;;19.00;;
317;SDS011;146;53.448;10.228;2024-03-07T14:38:53;19.00;;;17.10;;
317;SDS011;146;53.448;10.228;2024-03-07T14:41:45;20.60;;;18.17;;
317;SDS011;146;53.448;10.228;2024-03-07T14:44:37;22.00;;;17.47;;
317;SDS011;146;53.448;10.228;2024-03-07T14:47:25;21.50;;;17.73;;
317;SDS011;146;53.448;10.228;2024-03-07T14:50:12;19.67;;;17.77;;
317;SDS011;146;53.448;10.228;2024-03-07T14:53:01;20.70;;;18.20;;
317;SDS011;146;53.448;10.228;2024-03-07T14:55:50;21.03;;;17.50;;
317;SDS011;146;53.448;10.228;2024-03-07T14:58:40;18.73;;;16.57;;
317;SDS011;146;53.448;10.228;2024-03-07T15:01:29;19.10;;;17.10;;
317;SDS011;146;53.448;10.228;2024-03-07T15:04:19;18.83;;;17.03;;
317;SDS011;146;53.448;10.228;2024-03-07T15:07:06;18.60;;;16.97;;
317;SDS011;146;53.448;10.228;2024-03-07T15:09:54;17.33;;;15.73;;
317;SDS011;146;53.448;10.228;2024-03-07T15:12:44;19.50;;;17.53;;
317;SDS011;146;53.448;10.228;2024-03-07T15:15:32;16.87;;;15.07;;
317;SDS011;146;53.448;10.228;2024-03-07T15:18:20;17.00;;;15.40;;
317;SDS011;146;53.448;10.228;2024-03-07T15:21:07;18.30;;;16.50;;
317;SDS011;146;53.448;10.228;2024-03-07T15:24:00;18.30;;;16.50;;
317;SDS011;146;53.448;10.228;2024-03-07T15:26:48;17.50;;;15.33;;
317;SDS011;146;53.448;10.228;2024-03-07T15:29:36;16.07;;;14.60;;
317;SDS011;146;53.448;10.228;2024-03-07T15:32:23;15.20;;;13.80;;
317;SDS011;146;53.448;10.228;2024-03-07T15:35:12;17.90;;;14.30;;
317;SDS011;146;53.448;10.228;2024-03-07T15:38:02;17.83;;;15.17;;
317;SDS011;146;53.448;10.228;2024-03-07T15:40:58;16.33;;;14.73;;
317;SDS011;146;53.448;10.228;2024-03-07T15:43:47;16.80;;;15.00;;
317;SDS011;146;53.448;10.228;2024-03-07T15:46:34;18.40;;;16.50;;
317;SDS011;146;53.448;10.228;2024-03-07T15:49:22;15.40;;;13.90;;
317;SDS011;146;53.448;10.228;2024-03-07T15:52:12;15.43;;;14.03;;
317;SDS011;146;53.448;10.228;2024-03-07T15:54:59;16.20;;;14.13;;
317;SDS011;146;53.448;10.228;2024-03-07T15:57:47;14.60;;;13.10;;
317;SDS011;146;53.448;10.228;2024-03-07T16:00:36;19.23;;;13.60;;
317;SDS011;146;53.448;10.228;2024-03-07T16:03:26;17.20;;;14.97;;
317;SDS011;146;53.448;10.228;2024-03-07T16:06:14;17.20;;;14.87;;
317;SDS011;146;53.448;10.228;2024-03-07T16:09:03;17.70;;;15.50;;
317;SDS011;146;53.448;10.228;2024-03-07T16:11:50;18.03;;;16.13;;
317;SDS011;146;53.448;10.228;2024-03-07T16:14:39;17.47;;;15.67;;
317;SDS011;146;53.448;10.228;2024-03-07T16:17:26;18.50;;;15.70;;
317;SDS011;146;53.448;10.228;2024-03-07T16:20:13;18.47;;;16.47;;
317;SDS011;146;53.448;10.228;2024-03-07T16:23:02;21.50;;;16.67;;
317;SDS011;146;53.448;10.228;2024-03-07T16:25:52;18.57;;;15.70;;
317;SDS011;146;53.448;10.228;2024-03-07T16:28:39;20.53;;;17.00;;
317;SDS011;146;53.448;10.228;2024-03-07T16:31:26;17.40;;;15.60;;
317;SDS011;146;53.448;10.228;2024-03-07T16:34:13;18.53;;;16.57;;
317;SDS011;146;53.448;10.228;2024-03-07T16:37:00;20.93;;;17.10;;
317;SDS011;146;53.448;10.228;2024-03-07T16:39:50;20.23;;;18.03;;
317;SDS011;146;53.448;10.228;2024-03-07T16:42:39;23.90;;;19.33;;
317;SDS011;146;53.448;10.228;2024-03-07T16:45:28;22.00;;;18.60;;
317;SDS011;146;53.448;10.228;2024-03-07T16:48:16;23.30;;;18.83;;
317;SDS011;146;53.448;10.228;2024-03-07T16:51:04;20.00;;;17.80;;
317;SDS011;146;53.448;10.228;2024-03-07T16:53:53;22.33;;;18.63;;
317;SDS011;146;53.448;10.228;2024-03-07T16:56:41;22.10;;;19.23;;
317;SDS011;146;53.448;10.228;2024-03-07T16:59:30;21.37;;;19.10;;
317;SDS011;146;53.448;10.228;2024-03-07T17:02:17;27.23;;;20.00;;
317;SDS011;146;53.448;10.228;2024-03-07T17:05:05;25.20;;;20.60;;
317;SDS011;146;53.448;10.228;2024-03-07T17:07:58;23.13;;;19.03;;
317;SDS011;146;53.448;10.228;2024-03-07T17:10:46;23.00;;;18.97;;
317;SDS011;146;53.448;10.228;2024-03-07T17:13:33;25.80;;;21.13;;
317;SDS011;146;53.448;10.228;2024-03-07T17:16:27;26.70;;;20.80;;
317;SDS011;146;53.448;10.228;2024-03-07T17:19:14;23.67;;;19.97;;
317;SDS011;146;53.448;10.228;2024-03-07T17:22:03;24.43;;;21.43;;
317;SDS011;146;53.448;10.228;2024-03-07T17:24:55;25.47;;;20.80;;
317;SDS011;146;53.448;10.228;2024-03-07T17:27:42;26.60;;;22.30;;
317;SDS011;146;53.448;10.228;2024-03-07T17:30:32;25.47;;;21.17;;
317;SDS011;146;53.448;10.228;2024-03-07T17:33:21;30.87;;;23.20;;
317;SDS011;146;53.448;10.228;2024-03-07T17:36:11;30.10;;;23.50;;
317;SDS011;146;53.448;10.228;2024-03-07T17:38:58;25.13;;;21.67;;
317;SDS011;146;53.448;10.228;2024-03-07T17:41:48;27.40;;;21.97;;
317;SDS011;146;53.448;10.228;2024-03-07T17:44:36;28.93;;;23.83;;
317;SDS011;146;53.448;10.228;2024-03-07T17:47:23;27.80;;;21.53;;
317;SDS011;146;53.448;10.228;2024-03-07T17:50:15;31.47;;;23.90;;
317;SDS011;146;53.448;10.228;2024-03-07T17:53:05;36.57;;;26.00;;
317;SDS011;146;53.448;10.228;2024-03-07T17:55:54;33.83;;;25.73;;
317;SDS011;146;53.448;10.228;2024-03-07T17:58:43;34.30;;;27.17;;
317;SDS011;146;53.448;10.228;2024-03-07T18:01:31;35.27;;;28.47;;
317;SDS011;146;53.448;10.228;2024-03-07T18:04:18;38.27;;;29.17;;
317;SDS011;146;53.448;10.228;2024-03-07T18:07:11;35.40;;;26.60;;
317;SDS011;146;53.448;10.228;2024-03-07T18:09:58;30.43;;;25.10;;
317;SDS011;146;53.448;10.228;2024-03-07T18:12:45;27.60;;;23.60;;
317;SDS011;146;53.448;10.228;2024-03-07T18:15:35;25.60;;;22.10;;
317;SDS011;146;53.448;10.228;2024-03-07T18:18:27;60.80;;;47.20;;
317;SDS011;146;53.448;10.228;2024-03-07T18:21:17;35.80;;;29.93;;
317;SDS011;146;53.448;10.228;2024-03-07T18:24:08;29.30;;;24.57;;
317;SDS011;146;53.448;10.228;2024-03-07T18:26:58;30.20;;;23.80;;
317;SDS011;146;53.448;10.228;2024-03-07T18:29:55;25.77;;;23.07;;
317;SDS011;146;53.448;10.228;2024-03-07T18:32:59;25.40;;;22.43;;
317;SDS011;146;53.448;10.228;2024-03-07T18:35:49;24.03;;;21.40;;
317;SDS011;146;53.448;10.228;2024-03-07T18:38:41;22.53;;;20.20;;
317;SDS011;146;53.448;10.228;2024-03-07T18:41:34;21.70;;;19.40;;
317;SDS011;146;53.448;10.228;2024-03-07T18:44:21;21.67;;;19.57;;
317;SDS011;146;53.448;10.228;2024-03-07T18:47:15;23.90;;;20.93;;
317;SDS011;146;53.448;10.228;2024-03-07T18:50:05;20.60;;;18.47;;
317;SDS011;146;53.448;10.228;2024-03-07T18:52:54;20.00;;;18.10;;
317;SDS011;146;53.448;10.228;2024-03-07T18:55:48;21.63;;;19.40;;
317;SDS011;146;53.448;10.228;2024-03-07T18:58:37;19.80;;;17.90;;
317;SDS011;146;53.448;10.228;2024-03-07T19:01:25;21.37;;;19.37;;
317;SDS011;146;53.448;10.228;2024-03-07T19:04:17;20.50;;;18.40;;
317;SDS011;146;53.448;10.228;2024-03-07T19:07:04;22.27;;;20.07;;
317;SDS011;146;53.448;10.228;2024-03-07T19:09:54;19.53;;;17.70;;
317;SDS011;146;53.448;10.228;2024-03-07T19:12:44;20.03;;;18.07;;
317;SDS011;146;53.448;10.228;2024-03-07T19:15:33;20.50;;;18.40;;
317;SDS011;146;53.448;10.228;2024-03-07T19:18:26;21.37;;;19.40;;
317;SDS011;146;53.448;10.228;2024-03-07T19:21:14;18.37;;;16.70;;
317;SDS011;146;53.448;10.228;2024-03-07T19:24:08;19.60;;;17.80;;
317;SDS011;146;53.448;10.228;2024-03-07T19:26:57;20.40;;;18.40;;
317;SDS011;146;53.448;10.228;2024-03-07T19:29:47;16.60;;;15.10;;
317;SDS011;146;53.448;10.228;2024-03-07T19:32:40;17.33;;;15.63;;
317;SDS011;146;53.448;10.228;2024-03-07T19:35:30;19.80;;;18.07;;
317;SDS011;146;53.448;10.228;2024-03-07T19:38:19;19.30;;;17.43;;
317;SDS011;146;53.448;10.228;2024-03-07T19:41:09;18.63;;;16.27;;
317;SDS011;146;53.448;10.228;2024-03-07T19:43:56;18.90;;;17.30;;
317;SDS011;146;53.448;10.228;2024-03-07T19:46:46;18.33;;;16.60;;
317;SDS011;146;53.448;10.228;2024-03-07T19:49:39;19.07;;;17.27;;
317;SDS011;146;53.448;10.228;2024-03-07T19:52:26;17.20;;;15.50;;
317;SDS011;146;53.448;10.228;2024-03-07T19:55:13;17.70;;;16.00;;
317;SDS011;146;53.448;10.228;2024-03-07T19:58:04;18.17;;;16.57;;
317;SDS011;146;53.448;10.228;2024-03-07T20:01:03;18.40;;;16.60;;
317;SDS011;146;53.448;10.228;2024-03-07T20:04:02;17.67;;;15.87;;
317;SDS011;146;53.448;10.228;2024-03-07T20:06:53;17.17;;;15.47;;
317;SDS011;146;53.448;10.228;2024-03-07T20:09:43;17.47;;;15.97;;
317;SDS011;146;53.448;10.228;2024-03-07T20:12:41;16.93;;;15.50;;
317;SDS011;146;53.448;10.228;2024-03-07T20:15:29;16.53;;;15.03;;
317;SDS011;146;53.448;10.228;2024-03-07T20:18:20;17.63;;;15.87;;
317;SDS011;146;53.448;10.228;2024-03-07T20:21:12;16.43;;;14.83;;
317;SDS011;146;53.448;10.228;2024-03-07T20:24:01;18.20;;;16.60;;
317;SDS011;146;53.448;10.228;2024-03-07T20:26:51;16.10;;;14.70;;
317;SDS011;146;53.448;10.228;2024-03-07T20:29:39;17.83;;;16.13;;
317;SDS011;146;53.448;10.228;2024-03-07T20:32:31;16.83;;;15.23;;
317;SDS011;146;53.448;10.228;2024-03-07T20:35:20;17.30;;;15.70;;
317;SDS011;146;53.448;10.228;2024-03-07T20:38:11;17.73;;;15.93;;
317;SDS011;146;53.448;10.228;2024-03-07T20:41:02;17.10;;;15.50;;
317;SDS011;146;53.448;10.228;2024-03-07T20:43:49;18.03;;;16.43;;
317;SDS011;146;53.448;10.228;2024-03-07T20:46:39;18.97;;;17.23;;
317;SDS011;146;53.448;10.228;2024-03-07T20:49:26;17.83;;;16.13;;
317;SDS011;146;53.448;10.228;2024-03-07T20:52:13;16.63;;;15.13;;
317;SDS011;146;53.448;10.228;2024-03-07T20:55:02;17.87;;;16.20;;
317;SDS011;146;53.448;10.228;2024-03-07T20:57:55;17.53;;;15.73;;
317;SDS011;146;53.448;10.228;2024-03-07T21:00:46;17.60;;;16.00;;
317;SDS011;146;53.448;10.228;2024-03-07T21:03:37;17.60;;;15.90;;
317;SDS011;146;53.448;10.228;2024-03-07T21:06:26;19.53;;;17.53;;
317;SDS011;146;53.448;10.228;2024-03-07T21:09:16;17.83;;;16.23;;
317;SDS011;146;53.448;10.228;2024-03-07T21:12:08;17.60;;;16.00;;
317;SDS011;146;53.448;10.228;2024-03-07T21:14:57;17.40;;;15.73;;
317;SDS011;146;53.448;10.228;2024-03-07T21:17:44;18.83;;;17.03;;
317;SDS011;146;53.448;10.228;2024-03-07T21:20:31;18.20;;;16.50;;
317;SDS011;146;53.448;10.228;2024-03-07T21:23:19;18.83;;;16.97;;
317;SDS011;146;53.448;10.228;2024-03-07T21:26:08;16.70;;;15.30;;
317;SDS011;146;53.448;10.228;2024-03-07T21:28:57;17.97;;;16.20;;
317;SDS011;146;53.448;10.228;2024-03-07T21:31:46;17.97;;;16.20;;
317;SDS011;146;53.448;10.228;2024-03-07T21:34:34;18.40;;;16.77;;
317;SDS011;146;53.448;10.228;2024-03-07T21:37:24;17.90;;;16.30;;
317;SDS011;146;53.448;10.228;2024-03-07T21:40:12;19.63;;;17.53;;
317;SDS011;146;53.448;10.228;2024-03-07T21:43:04;18.37;;;16.67;;
317;SDS011;146;53.448;10.228;2024-03-07T21:45:52;18.20;;;16.50;;
317;SDS011;146;53.448;10.228;2024-03-07T21:48:40;19.10;;;17.30;;
317;SDS011;146;53.448;10.228;2024-03-07T21:51:28;18.47;;;16.47;;
317;SDS011;146;53.448;10.228;2024-03-07T21:54:19;17.10;;;15.40;;
317;SDS011;146;53.448;10.228;2024-03-07T21:57:10;18.97;;;17.07;;
317;SDS011;146;53.448;10.228;2024-03-07T22:00:04;18.87;;;17.07;;
317;SDS011;146;53.448;10.228;2024-03-07T22:03:00;18.73;;;16.93;;
317;SDS011;146;53.448;10.228;2024-03-07T22:05:54;18.97;;;17.00;;
317;SDS011;146;53.448;10.228;2024-03-07T22:08:42;18.10;;;16.23;;
317;SDS011;146;53.448;10.228;2024-03-07T22:11:32;17.93;;;16.20;;
317;SDS011;146;53.448;10.228;2024-03-07T22:14:31;18.30;;;16.60;;
317;SDS011;146;53.448;10.228;2024-03-07T22:17:32;19.20;;;17.40;;
317;SDS011;146;53.448;10.228;2024-03-07T22:20:19;17.37;;;15.77;;
317;SDS011;146;53.448;10.228;2024-03-07T22:23:09;19.77;;;17.87;;
317;SDS011;146;53.448;10.228;2024-03-07T22:25:59;18.40;;;16.60;;
317;SDS011;146;53.448;10.228;2024-03-07T22:28:47;18.10;;;16.20;;
317;SDS011;146;53.448;10.228;2024-03-07T22:31:37;17.93;;;16.10;;
317;SDS011;146;53.448;10.228;2024-03-07T22:34:27;18.83;;;17.00;;
317;SDS011;146;53.448;10.228;2024-03-07T22:37:14;20.07;;;18.17;;
317;SDS011;146;53.448;10.228;2024-03-07T22:40:03;17.40;;;15.70;;
317;SDS011;146;53.448;10.228;2024-03-07T22:42:52;18.27;;;16.43;;
317;SDS011;146;53.448;10.228;2024-03-07T22:45:39;18.67;;;16.70;;
317;SDS011;146;53.448;10.228;2024-03-07T22:48:27;17.93;;;16.23;;
317;SDS011;146;53.448;10.228;2024-03-07T22:51:27;19.53;;;17.73;;
317;SDS011;146;53.448;10.228;2024-03-07T22:54:14;19.30;;;17.20;;
317;SDS011;146;53.448;10.228;2024-03-07T22:57:06;19.37;;;17.47;;
317;SDS011;146;53.448;10.228;2024-03-07T22:59:53;17.57;;;15.90;;
317;SDS011;146;53.448;10.228;2024-03-07T23:02:41;18.70;;;17.00;;
317;SDS011;146;53.448;10.228;2024-03-07T23:05:30;19.20;;;17.20;;
317;SDS011;146;53.448;10.228;2024-03-07T23:08:17;18.03;;;16.23;;
317;SDS011;146;53.448;10.228;2024-03-07T23:11:04;20.17;;;17.93;;
317;SDS011;146;53.448;10.228;2024-03-07T23:13:53;18.70;;;16.90;;
317;SDS011;146;53.448;10.228;2024-03-07T23:16:40;18.60;;;16.80;;
317;SDS011;146;53.448;10.228;2024-03-07T23:19:30;18.10;;;16.37;;
317;SDS011;146;53.448;10.228;2024-03-07T23:22:21;18.80;;;17.00;;
317;SDS011;146;53.448;10.228;2024-03-07T23:25:14;19.50;;;17.50;;
317;SDS011;146;53.448;10.228;2024-03-07T23:28:05;18.40;;;16.60;;
317;SDS011;146;53.448;10.228;2024-03-07T23:30:55;19.53;;;17.53;;
317;SDS011;146;53.448;10.228;2024-03-07T23:33:50;19.10;;;17.10;;
317;SDS011;146;53.448;10.228;2024-03-07T23:36:39;19.80;;;16.40;;
317;SDS011;146;53.448;10.228;2024-03-07T23:39:28;17.63;;;15.90;;
317;SDS011;146;53.448;10.228;2024-03-07T23:42:16;18.20;;;16.53;;
317;SDS011;146;53.448;10.228;2024-03-07T23:45:12;17.63;;;15.93;;
317;SDS011;146;53.448;10.228;2024-03-07T23:48:06;18.93;;;16.93;;
317;SDS011;146;53.448;10.228;2024-03-07T23:50:54;18.40;;;16.60;;
317;SDS011;146;53.448;10.228;2024-03-07T23:53:46;20.23;;;18.23;;
317;SDS011;146;53.448;10.228;2024-03-07T23:56:33;18.77;;;16.73;;
317;SDS011;146;53.448;10.228;2024-03-07T23:59:23;20.33;;;18.07;;
